createdAt,value
2023-05-22T00:00:22.083Z,99.90
2023-05-22T00:02:51.145Z,99.90
2023-05-22T00:05:20.584Z,99.90
2023-05-22T00:07:48.820Z,99.90
2023-05-22T00:10:17.039Z,99.90
2023-05-22T00:12:46.548Z,99.90
2023-05-22T00:15:15.028Z,99.90
2023-05-22T00:17:44.497Z,99.90
2023-05-22T00:20:13.328Z,99.90
2023-05-22T00:22:41.514Z,99.90
2023-05-22T00:25:11.696Z,99.90
2023-05-22T00:27:40.197Z,99.90
2023-05-22T00:30:11.495Z,99.90
2023-05-22T00:32:40.588Z,99.90
2023-05-22T00:35:10.423Z,99.90
2023-05-22T00:37:38.625Z,99.90
2023-05-22T00:40:09.023Z,99.90
2023-05-22T00:42:37.159Z,99.90
2023-05-22T00:45:07.402Z,99.90
2023-05-22T00:47:37.429Z,99.90
2023-05-22T00:50:07.185Z,99.90
2023-05-22T00:52:39.078Z,99.90
2023-05-22T00:55:08.873Z,99.90
2023-05-22T00:57:40.574Z,99.90
2023-05-22T01:00:11.430Z,99.90
2023-05-22T01:02:43.430Z,99.90
2023-05-22T01:05:13.368Z,99.90
2023-05-22T01:07:41.967Z,99.90
2023-05-22T01:10:11.017Z,99.90
2023-05-22T01:12:49.382Z,99.90
2023-05-22T01:15:25.688Z,99.90
2023-05-22T01:18:05.672Z,99.90
2023-05-22T01:20:39.288Z,99.90
2023-05-22T01:23:40.757Z,99.90
2023-05-22T01:26:33.033Z,99.90
2023-05-22T01:29:23.949Z,99.90
2023-05-22T01:31:55.954Z,99.90
2023-05-22T01:34:26.231Z,99.90
2023-05-22T01:36:55.847Z,99.90
2023-05-22T01:39:25.838Z,99.90
2023-05-22T01:41:54.209Z,99.90
2023-05-22T01:44:23.874Z,99.90
2023-05-22T01:46:53.605Z,99.90
2023-05-22T01:49:22.124Z,99.90
2023-05-22T01:51:54.137Z,99.90
2023-05-22T01:54:28.465Z,99.90
2023-05-22T01:57:06.888Z,99.90
2023-05-22T01:59:41.474Z,99.90
2023-05-22T02:02:14.834Z,99.90
2023-05-22T02:04:46.966Z,99.90
2023-05-22T02:07:16.372Z,99.90
2023-05-22T02:09:47.669Z,99.90
2023-05-22T02:12:16.981Z,99.90
2023-05-22T02:14:45.667Z,99.90
2023-05-22T02:17:15.300Z,99.90
2023-05-22T02:19:43.497Z,99.90
2023-05-22T02:22:14.053Z,99.90
2023-05-22T02:24:43.300Z,99.90
2023-05-22T02:27:11.899Z,99.90
2023-05-22T02:29:40.471Z,99.90
2023-05-22T02:32:09.731Z,99.90
2023-05-22T02:34:39.270Z,99.90
2023-05-22T02:37:07.757Z,99.90
2023-05-22T02:39:35.954Z,99.90
2023-05-22T02:42:04.344Z,99.90
2023-05-22T02:44:32.868Z,99.90
2023-05-22T02:47:01.051Z,99.90
2023-05-22T02:49:29.462Z,99.90
2023-05-22T02:52:00.150Z,99.90
2023-05-22T02:54:28.278Z,99.90
2023-05-22T02:56:57.236Z,99.90
2023-05-22T02:59:25.565Z,99.90
2023-05-22T03:01:54.550Z,99.90
2023-05-22T03:04:23.086Z,99.90
2023-05-22T03:06:51.307Z,99.90
2023-05-22T03:09:21.767Z,99.90
2023-05-22T03:11:49.893Z,99.90
2023-05-22T03:14:18.061Z,99.90
2023-05-22T03:16:46.706Z,99.90
2023-05-22T03:19:16.312Z,99.90
2023-05-22T03:21:45.150Z,99.90
2023-05-22T03:24:13.938Z,99.90
2023-05-22T03:26:43.900Z,99.90
2023-05-22T03:29:12.453Z,99.90
2023-05-22T03:31:40.637Z,99.90
2023-05-22T03:34:09.198Z,99.90
2023-05-22T03:36:37.427Z,99.90
2023-05-22T03:39:06.423Z,99.90
2023-05-22T03:41:34.680Z,99.90
2023-05-22T03:44:04.405Z,99.90
2023-05-22T03:46:32.608Z,99.90
2023-05-22T03:49:00.801Z,99.90
2023-05-22T03:51:29.242Z,99.90
2023-05-22T03:53:57.403Z,99.90
2023-05-22T03:56:25.707Z,99.90
2023-05-22T03:58:54.242Z,99.90
2023-05-22T04:01:23.812Z,99.90
2023-05-22T04:03:52.268Z,99.90
2023-05-22T04:06:22.071Z,99.90
2023-05-22T04:08:50.613Z,99.90
2023-05-22T04:11:20.083Z,99.90
2023-05-22T04:13:51.327Z,99.90
2023-05-22T04:16:19.837Z,99.90
2023-05-22T04:18:49.426Z,99.90
2023-05-22T04:21:17.570Z,99.90
2023-05-22T04:23:46.037Z,99.90
2023-05-22T04:26:14.436Z,99.90
2023-05-22T04:28:46.295Z,99.90
2023-05-22T04:31:15.058Z,99.90
2023-05-22T04:33:48.469Z,99.90
2023-05-22T04:36:22.300Z,99.90
2023-05-22T04:38:50.448Z,99.90
2023-05-22T04:41:21.219Z,99.90
2023-05-22T04:43:50.558Z,99.90
2023-05-22T04:46:19.039Z,99.90
2023-05-22T04:48:47.221Z,99.90
2023-05-22T04:51:16.344Z,99.90
2023-05-22T04:53:46.290Z,99.90
2023-05-22T04:56:18.642Z,99.90
2023-05-22T04:58:54.210Z,99.90
2023-05-22T05:01:22.756Z,99.90
2023-05-22T05:03:51.148Z,99.90
2023-05-22T05:06:21.969Z,99.90
2023-05-22T05:08:53.399Z,99.90
2023-05-22T05:11:21.728Z,99.90
2023-05-22T05:13:49.897Z,99.90
2023-05-22T05:16:18.839Z,99.90
2023-05-22T05:18:47.002Z,99.90
2023-05-22T05:21:15.279Z,99.90
2023-05-22T05:23:43.946Z,99.90
2023-05-22T05:26:13.479Z,99.90
2023-05-22T05:28:42.274Z,99.90
2023-05-22T05:31:10.920Z,99.90
2023-05-22T05:33:39.081Z,99.90
2023-05-22T05:36:07.826Z,99.90
2023-05-22T05:38:36.333Z,99.90
2023-05-22T05:41:04.549Z,99.90
2023-05-22T05:43:34.093Z,99.90
2023-05-22T05:46:02.624Z,99.90
2023-05-22T05:48:31.084Z,99.90
2023-05-22T05:50:59.336Z,99.90
2023-05-22T05:53:27.768Z,99.90
2023-05-22T05:55:56.194Z,99.90
2023-05-22T05:58:24.312Z,99.90
2023-05-22T06:00:53.806Z,99.90
2023-05-22T06:03:22.900Z,99.90
2023-05-22T06:05:51.341Z,99.90
2023-05-22T06:08:19.954Z,99.90
2023-05-22T06:10:48.633Z,99.90
2023-05-22T06:13:17.032Z,99.90
2023-05-22T06:15:45.204Z,99.90
2023-05-22T06:18:15.046Z,99.90
2023-05-22T06:20:43.264Z,99.90
2023-05-22T06:23:11.645Z,99.90
2023-05-22T06:25:40.609Z,99.90
2023-05-22T06:28:08.766Z,99.90
2023-05-22T06:30:40.215Z,99.90
2023-05-22T06:33:09.357Z,99.90
2023-05-22T06:35:38.989Z,99.90
2023-05-22T06:38:07.126Z,99.90
2023-05-22T06:40:35.806Z,99.90
2023-05-22T06:43:04.409Z,99.90
2023-05-22T06:45:32.874Z,99.90
2023-05-22T06:48:01.138Z,99.90
2023-05-22T06:50:29.855Z,99.90
2023-05-22T06:52:59.656Z,99.90
2023-05-22T06:55:27.783Z,99.90
2023-05-22T06:57:55.958Z,99.90
2023-05-22T07:00:24.159Z,99.90
2023-05-22T07:02:52.629Z,99.90
2023-05-22T07:05:20.852Z,99.90
2023-05-22T07:07:49.034Z,99.90
2023-05-22T07:10:18.538Z,99.90
2023-05-22T07:12:46.955Z,99.90
2023-05-22T07:15:15.082Z,99.90
2023-05-22T07:17:43.336Z,99.90
2023-05-22T07:20:12.383Z,99.90
2023-05-22T07:22:40.553Z,99.90
2023-05-22T07:25:09.942Z,99.90
2023-05-22T07:27:39.503Z,99.90
2023-05-22T07:30:09.460Z,99.90
2023-05-22T07:32:37.776Z,99.90
2023-05-22T07:35:07.665Z,99.90
2023-05-22T07:37:36.944Z,99.90
2023-05-22T07:40:06.865Z,99.90
2023-05-22T07:42:35.886Z,99.80
2023-05-22T07:45:06.214Z,99.60
2023-05-22T07:47:34.642Z,99.20
2023-05-22T07:50:04.394Z,99.90
2023-05-22T07:52:33.026Z,99.30
2023-05-22T07:55:01.559Z,98.20
2023-05-22T07:57:30.755Z,99.00
2023-05-22T07:59:59.312Z,98.90
2023-05-22T08:02:28.972Z,99.00
2023-05-22T08:04:57.253Z,98.70
2023-05-22T08:07:25.815Z,98.40
2023-05-22T08:09:54.054Z,98.50
2023-05-22T08:12:22.160Z,97.50
2023-05-22T08:14:50.354Z,97.70
2023-05-22T08:17:18.707Z,98.00
2023-05-22T08:19:48.806Z,97.60
2023-05-22T08:22:17.108Z,97.10
2023-05-22T08:24:45.295Z,96.70
2023-05-22T08:27:13.472Z,96.90
2023-05-22T08:29:41.743Z,96.20
2023-05-22T08:32:10.028Z,96.50
2023-05-22T08:34:40.217Z,96.10
2023-05-22T08:37:10.835Z,95.40
2023-05-22T08:39:38.978Z,96.40
2023-05-22T08:42:07.855Z,96.60
2023-05-22T08:44:36.134Z,96.30
2023-05-22T08:47:10.223Z,96.20
2023-05-22T08:49:40.676Z,95.70
2023-05-22T08:52:14.375Z,95.00
2023-05-22T08:54:44.239Z,95.70
2023-05-22T08:57:12.680Z,95.30
2023-05-22T08:59:42.540Z,95.40
2023-05-22T09:02:11.988Z,96.10
2023-05-22T09:04:42.119Z,96.50
2023-05-22T09:07:12.156Z,95.60
2023-05-22T09:09:40.637Z,95.50
2023-05-22T09:12:10.781Z,94.80
2023-05-22T09:14:42.996Z,94.60
2023-05-22T09:17:12.868Z,94.30
2023-05-22T09:19:45.986Z,94.10
2023-05-22T09:22:16.707Z,93.10
2023-05-22T09:24:47.382Z,94.50
2023-05-22T09:27:15.553Z,93.50
2023-05-22T09:29:50.926Z,95.10
2023-05-22T09:32:20.298Z,94.20
2023-05-22T09:34:48.541Z,93.60
2023-05-22T09:37:18.930Z,94.20
2023-05-22T09:39:48.394Z,93.80
2023-05-22T09:42:18.358Z,93.70
2023-05-22T09:44:50.419Z,93.50
2023-05-22T09:47:18.846Z,93.20
2023-05-22T09:49:47.585Z,94.30
2023-05-22T09:52:19.156Z,93.40
2023-05-22T09:54:51.236Z,93.40
2023-05-22T09:57:20.788Z,92.30
2023-05-22T09:59:54.298Z,91.20
2023-05-22T10:02:24.768Z,93.60
2023-05-22T10:04:54.683Z,90.00
2023-05-22T10:07:27.881Z,91.30
2023-05-22T10:10:02.385Z,90.90
2023-05-22T10:12:34.978Z,93.00
2023-05-22T10:15:04.280Z,90.90
2023-05-22T10:17:32.996Z,91.80
2023-05-22T10:20:01.552Z,91.40
2023-05-22T10:22:33.235Z,90.60
2023-05-22T10:25:02.735Z,92.40
2023-05-22T10:27:30.959Z,90.60
2023-05-22T10:30:07.559Z,92.10
2023-05-22T10:32:42.262Z,89.90
2023-05-22T10:35:21.065Z,91.00
2023-05-22T10:37:53.079Z,92.40
2023-05-22T10:40:29.014Z,91.40
2023-05-22T10:43:00.819Z,91.30
2023-05-22T10:45:29.982Z,90.30
2023-05-22T10:48:05.688Z,91.30
2023-05-22T10:50:34.681Z,90.30
2023-05-22T10:53:24.722Z,90.00
2023-05-22T10:55:53.810Z,89.20
2023-05-22T10:58:28.536Z,90.90
2023-05-22T11:01:14.103Z,88.50
2023-05-22T11:03:56.751Z,90.40
2023-05-22T11:06:51.034Z,89.30
2023-05-22T11:09:22.811Z,86.80
2023-05-22T11:12:16.456Z,87.10
2023-05-22T11:14:48.915Z,86.70
2023-05-22T11:17:20.363Z,88.30
2023-05-22T11:20:02.636Z,90.20
2023-05-22T11:22:33.108Z,86.60
2023-05-22T11:25:06.192Z,85.50
2023-05-22T11:27:36.783Z,86.90
2023-05-22T11:30:06.752Z,87.60
2023-05-22T11:32:37.565Z,88.70
2023-05-22T11:35:08.614Z,89.80
2023-05-22T11:37:40.615Z,85.70
2023-05-22T11:40:11.673Z,86.90
2023-05-22T11:42:40.260Z,84.80
2023-05-22T11:45:10.328Z,85.40
2023-05-22T11:47:38.814Z,86.30
2023-05-22T11:50:10.796Z,86.50
2023-05-22T11:52:41.467Z,85.90
2023-05-22T11:55:12.030Z,85.60
2023-05-22T11:57:40.693Z,85.50
2023-05-22T12:00:10.718Z,84.30
2023-05-22T12:02:39.579Z,87.00
2023-05-22T12:05:10.510Z,85.70
2023-05-22T12:07:39.115Z,85.30
2023-05-22T12:10:08.561Z,84.40
2023-05-22T12:12:38.611Z,82.90
2023-05-22T12:15:08.405Z,85.60
2023-05-22T12:17:38.475Z,82.90
2023-05-22T12:20:07.840Z,85.10
2023-05-22T12:22:43.023Z,84.60
2023-05-22T12:25:16.402Z,83.20
2023-05-22T12:27:46.739Z,82.90
2023-05-22T12:30:16.221Z,82.70
2023-05-22T12:32:48.727Z,82.90
2023-05-22T12:35:17.608Z,82.60
2023-05-22T12:37:50.481Z,83.30
2023-05-22T12:40:18.933Z,83.00
2023-05-22T12:42:49.854Z,84.20
2023-05-22T12:45:18.849Z,85.60
2023-05-22T12:47:47.648Z,86.00
2023-05-22T12:50:15.947Z,87.10
2023-05-22T12:52:44.443Z,85.70
2023-05-22T12:55:12.763Z,83.90
2023-05-22T12:57:41.235Z,84.10
2023-05-22T13:00:11.989Z,83.60
2023-05-22T13:02:40.626Z,84.10
2023-05-22T13:05:09.263Z,82.60
2023-05-22T13:07:38.835Z,80.40
2023-05-22T13:10:08.169Z,80.40
2023-05-22T13:12:36.327Z,82.50
2023-05-22T13:15:05.010Z,81.00
2023-05-22T13:17:34.939Z,81.50
2023-05-22T13:20:03.538Z,81.20
2023-05-22T13:22:32.001Z,81.70
2023-05-22T13:25:00.219Z,81.70
2023-05-22T13:27:29.158Z,83.60
2023-05-22T13:29:57.931Z,87.90
2023-05-22T13:32:26.392Z,83.00
2023-05-22T13:34:56.085Z,82.30
2023-05-22T13:37:24.610Z,82.10
2023-05-22T13:39:52.965Z,85.70
2023-05-22T13:42:21.656Z,85.90
2023-05-22T13:44:50.078Z,84.80
2023-05-22T13:47:18.300Z,81.20
2023-05-22T13:49:46.956Z,83.60
2023-05-22T13:52:16.558Z,78.60
2023-05-22T13:54:44.939Z,78.80
2023-05-22T13:57:13.297Z,78.50
2023-05-22T13:59:41.789Z,80.50
2023-05-22T14:02:09.927Z,80.00
2023-05-22T14:04:38.118Z,79.80
2023-05-22T14:07:06.856Z,78.20
2023-05-22T14:09:36.888Z,80.00
2023-05-22T14:12:05.466Z,78.90
2023-05-22T14:14:33.642Z,80.40
2023-05-22T14:17:02.276Z,78.30
2023-05-22T14:19:30.813Z,79.50
2023-05-22T14:21:59.034Z,77.90
2023-05-22T14:24:27.257Z,78.50
2023-05-22T14:26:58.213Z,78.60
2023-05-22T14:29:27.002Z,79.70
2023-05-22T14:32:02.561Z,77.60
2023-05-22T14:34:31.136Z,78.00
2023-05-22T14:36:59.416Z,78.50
2023-05-22T14:39:28.040Z,78.40
2023-05-22T14:41:57.640Z,78.20
2023-05-22T14:44:25.838Z,79.10
2023-05-22T14:46:54.759Z,81.30
2023-05-22T14:49:23.520Z,78.30
2023-05-22T14:51:51.649Z,79.30
2023-05-22T14:54:20.811Z,77.80
2023-05-22T14:56:48.958Z,78.10
2023-05-22T14:59:18.910Z,79.20
2023-05-22T15:01:50.573Z,78.50
2023-05-22T15:04:18.901Z,81.00
2023-05-22T15:06:47.419Z,80.90
2023-05-22T15:09:15.775Z,79.70
2023-05-22T15:11:47.095Z,81.10
2023-05-22T15:14:15.640Z,81.60
2023-05-22T15:16:45.218Z,81.90
2023-05-22T15:19:13.560Z,80.20
2023-05-22T15:21:42.558Z,80.60
2023-05-22T15:24:11.371Z,81.90
2023-05-22T15:26:39.499Z,78.80
2023-05-22T15:29:07.734Z,78.90
2023-05-22T15:31:35.981Z,81.10
2023-05-22T15:34:05.753Z,83.30
2023-05-22T15:36:36.503Z,82.40
2023-05-22T15:39:05.194Z,81.70
2023-05-22T15:41:33.367Z,83.40
2023-05-22T15:44:01.789Z,84.60
2023-05-22T15:46:29.958Z,85.10
2023-05-22T15:48:58.534Z,83.50
2023-05-22T15:51:28.102Z,85.00
2023-05-22T15:53:56.313Z,84.80
2023-05-22T15:56:24.917Z,85.30
2023-05-22T15:58:53.079Z,84.20
2023-05-22T16:01:21.224Z,85.00
2023-05-22T16:03:49.529Z,85.20
2023-05-22T16:06:18.221Z,83.50
2023-05-22T16:08:48.044Z,84.50
2023-05-22T16:11:16.535Z,83.10
2023-05-22T16:13:45.228Z,84.30
2023-05-22T16:16:13.508Z,84.80
2023-05-22T16:18:41.743Z,84.50
2023-05-22T16:21:10.219Z,84.30
2023-05-22T16:23:38.335Z,84.00
2023-05-22T16:26:07.965Z,83.90
2023-05-22T16:28:36.092Z,84.60
2023-05-22T16:31:06.255Z,86.10
2023-05-22T16:33:36.368Z,85.10
2023-05-22T16:36:05.085Z,86.20
2023-05-22T16:38:33.655Z,86.60
2023-05-22T16:41:02.734Z,86.40
2023-05-22T16:43:32.376Z,86.80
2023-05-22T16:46:00.770Z,87.50
2023-05-22T16:48:28.888Z,86.90
2023-05-22T16:50:57.303Z,86.10
2023-05-22T16:53:25.428Z,87.50
2023-05-22T16:55:53.629Z,87.70
2023-05-22T16:58:21.855Z,86.80
2023-05-22T17:01:05.724Z,87.70
2023-05-22T17:03:34.025Z,87.30
2023-05-22T17:06:03.427Z,88.20
2023-05-22T17:08:32.187Z,87.90
2023-05-22T17:11:00.457Z,88.10
2023-05-22T17:13:29.005Z,88.30
2023-05-22T17:15:58.668Z,88.00
2023-05-22T17:18:26.998Z,88.30
2023-05-22T17:20:55.820Z,88.50
2023-05-22T17:23:24.298Z,89.80
2023-05-22T17:25:52.473Z,90.00
2023-05-22T17:28:20.661Z,90.40
2023-05-22T17:30:48.894Z,90.30
2023-05-22T17:33:18.788Z,90.70
2023-05-22T17:35:47.487Z,90.00
2023-05-22T17:38:15.979Z,89.10
2023-05-22T17:40:46.078Z,90.70
2023-05-22T17:43:15.169Z,90.20
2023-05-22T17:45:44.591Z,88.90
2023-05-22T17:48:14.574Z,90.40
2023-05-22T17:50:44.534Z,90.80
2023-05-22T17:53:13.545Z,91.80
2023-05-22T17:59:23.264Z,90.90
2023-05-22T18:01:51.532Z,90.10
2023-05-22T18:04:19.912Z,89.20
2023-05-22T18:06:49.494Z,89.20
2023-05-22T18:09:17.955Z,91.30
2023-05-22T18:11:46.250Z,91.80
2023-05-22T18:14:14.458Z,92.50
2023-05-22T18:16:42.599Z,92.40
2023-05-22T18:19:10.801Z,92.00
2023-05-22T18:21:38.991Z,92.80
2023-05-22T18:24:08.812Z,93.20
2023-05-22T18:26:36.944Z,93.50
2023-05-22T18:29:05.062Z,93.80
2023-05-22T18:31:33.335Z,94.50
2023-05-22T18:34:01.524Z,95.20
2023-05-22T18:36:29.707Z,95.30
2023-05-22T18:38:57.877Z,95.70
2023-05-22T18:41:27.849Z,95.60
2023-05-22T18:43:56.008Z,95.60
2023-05-22T18:46:24.231Z,95.30
2023-05-22T18:48:52.436Z,95.40
2023-05-22T18:51:20.972Z,94.70
2023-05-22T18:53:49.196Z,95.40
2023-05-22T18:56:17.382Z,95.40
2023-05-22T18:58:46.912Z,93.50
2023-05-22T19:01:16.957Z,91.60
2023-05-22T19:03:45.119Z,91.70
2023-05-22T19:06:14.049Z,91.10
2023-05-22T19:08:42.195Z,91.30
2023-05-22T19:11:10.332Z,92.30
2023-05-22T19:13:38.743Z,93.70
2023-05-22T19:16:08.605Z,95.00
2023-05-22T19:18:37.265Z,97.70
2023-05-22T19:21:05.485Z,97.20
2023-05-22T19:23:34.081Z,98.40
2023-05-22T19:26:02.542Z,98.40
2023-05-22T19:28:32.329Z,99.90
2023-05-22T19:31:03.095Z,99.00
2023-05-22T19:33:33.154Z,99.90
2023-05-22T19:36:02.022Z,99.90
2023-05-22T19:38:31.154Z,99.90
2023-05-22T19:40:59.361Z,99.90
2023-05-22T19:43:27.691Z,99.90
2023-05-22T19:45:55.971Z,99.90
2023-05-22T19:48:25.010Z,99.90
2023-05-22T19:50:54.761Z,99.90
2023-05-22T19:53:23.091Z,99.90
2023-05-22T19:55:51.384Z,99.90
2023-05-22T19:58:20.177Z,99.90
2023-05-22T20:00:48.683Z,99.90
2023-05-22T20:03:17.346Z,99.90
2023-05-22T20:05:45.563Z,99.90
2023-05-22T20:08:15.596Z,99.90
2023-05-22T20:10:43.724Z,99.90
2023-05-22T20:13:11.879Z,99.90
2023-05-22T20:15:42.952Z,99.90
2023-05-22T20:18:12.329Z,99.90
2023-05-22T20:20:40.477Z,99.90
2023-05-22T20:23:09.090Z,99.90
2023-05-22T20:25:39.516Z,99.90
2023-05-22T20:28:07.797Z,99.90
2023-05-22T20:30:36.307Z,99.90
2023-05-22T20:33:04.568Z,99.90
2023-05-22T20:35:33.818Z,99.90
2023-05-22T20:38:04.150Z,99.90
2023-05-22T20:40:33.393Z,99.90
2023-05-22T20:43:03.774Z,99.90
2023-05-22T20:45:31.988Z,99.90
2023-05-22T20:48:00.793Z,99.90
2023-05-22T20:50:29.045Z,99.90
2023-05-22T20:52:57.190Z,99.90
2023-05-22T20:55:25.810Z,99.90
2023-05-22T20:57:54.341Z,99.90
2023-05-22T21:00:24.278Z,99.90
2023-05-22T21:02:52.951Z,99.90
2023-05-22T21:05:21.420Z,99.90
2023-05-22T21:07:49.545Z,99.90
2023-05-22T21:10:18.044Z,99.90
2023-05-22T21:12:46.525Z,99.90
2023-05-22T21:15:14.945Z,99.90
2023-05-22T21:17:44.446Z,99.90
2023-05-22T21:20:13.354Z,99.90
2023-05-22T21:22:41.496Z,99.90
2023-05-22T21:25:11.185Z,99.90
2023-05-22T21:27:39.323Z,99.90
2023-05-22T21:30:08.729Z,99.90
2023-05-22T21:32:36.862Z,99.90
2023-05-22T21:35:07.521Z,99.90
2023-05-22T21:37:35.757Z,99.90
2023-05-22T21:40:04.068Z,99.90
2023-05-22T21:42:45.022Z,99.90
2023-05-22T21:45:14.529Z,99.90
2023-05-22T21:47:42.766Z,99.90
2023-05-22T21:50:12.967Z,99.90
2023-05-22T21:52:41.198Z,99.90
2023-05-22T21:55:10.050Z,99.90
2023-05-22T21:57:38.610Z,99.90
2023-05-22T22:00:07.877Z,99.90
2023-05-22T22:02:36.191Z,99.90
2023-05-22T22:05:04.548Z,99.90
2023-05-22T22:07:34.406Z,99.90
2023-05-22T22:10:02.787Z,99.90
2023-05-22T22:12:30.941Z,99.90
2023-05-22T22:14:59.552Z,99.90
2023-05-22T22:17:27.764Z,99.90
2023-05-22T22:19:57.010Z,99.90
2023-05-22T22:22:26.286Z,99.90
2023-05-22T22:24:56.057Z,99.90
2023-05-22T22:27:25.141Z,99.90
2023-05-22T22:29:53.651Z,99.90
2023-05-22T22:32:21.793Z,99.90
2023-05-22T22:34:54.002Z,99.90
2023-05-22T22:37:22.505Z,99.90
2023-05-22T22:39:50.716Z,99.90
2023-05-22T22:42:20.449Z,99.90
2023-05-22T22:44:48.889Z,99.90
2023-05-22T22:47:17.596Z,99.90
2023-05-22T22:49:45.719Z,99.90
2023-05-22T22:52:14.176Z,99.90
2023-05-22T22:54:44.547Z,99.90
2023-05-22T22:57:13.156Z,99.90
2023-05-22T22:59:43.027Z,99.90
2023-05-22T23:02:11.526Z,99.90
2023-05-22T23:04:39.960Z,99.90
2023-05-22T23:07:08.629Z,99.90
2023-05-22T23:09:37.072Z,99.90
2023-05-22T23:12:06.724Z,99.90
2023-05-22T23:14:37.907Z,99.90
2023-05-22T23:17:07.821Z,99.90
2023-05-22T23:19:36.208Z,99.90
2023-05-22T23:22:04.465Z,99.90
2023-05-22T23:24:32.605Z,99.90
2023-05-22T23:27:01.489Z,99.90
2023-05-22T23:29:30.001Z,99.90
2023-05-22T23:31:58.713Z,99.90
2023-05-22T23:34:28.302Z,99.90
2023-05-22T23:36:56.707Z,99.90
2023-05-22T23:39:24.880Z,99.90
2023-05-22T23:41:54.162Z,99.90
2023-05-22T23:44:22.619Z,99.90
2023-05-22T23:46:51.063Z,99.90
2023-05-22T23:49:19.524Z,99.90
2023-05-22T23:51:49.119Z,99.90
2023-05-22T23:54:18.456Z,99.90
2023-05-22T23:56:46.581Z,99.90
2023-05-22T23:59:14.970Z,99.90
